sensor_id;sensor_type;location;lat;lon;timestamp;pressure;altitude;pressure_sealevel;temperature;humidity
31346;BME280;21711;49.708;18.568;2023-09-30T00:01:48;97750.03;;;13.17;100.00
31346;BME280;21711;49.708;18.568;2023-09-30T00:04:16;97749.53;;;13.10;100.00
31346;BME280;21711;49.708;18.568;2023-09-30T00:06:44;97744.00;;;13.06;100.00
31346;BME280;21711;49.708;18.568;2023-09-30T00:09:12;97744.53;;;13.03;100.00
31346;BME280;21711;49.708;18.568;2023-09-30T00:11:40;97742.47;;;13.00;100.00
31346;BME280;21711;49.708;18.568;2023-09-30T00:14:07;97740.84;;;12.99;100.00
31346;BME280;21711;49.708;18.568;2023-09-30T00:16:35;97739.28;;;12.98;100.00
31346;BME280;21711;49.708;18.568;2023-09-30T00:19:02;97742.72;;;12.98;100.00
31346;BME280;21711;49.708;18.568;2023-09-30T00:21:30;97743.81;;;12.97;100.00
31346;BME280;21711;49.708;18.568;2023-09-30T00:23:58;97743.19;;;13.06;100.00
31346;BME280;21711;49.708;18.568;2023-09-30T00:26:25;97745.84;;;13.06;100.00
31346;BME280;21711;49.708;18.568;2023-09-30T00:28:53;97739.75;;;13.05;100.00
31346;BME280;21711;49.708;18.568;2023-09-30T00:31:21;97734.72;;;13.04;100.00
31346;BME280;21711;49.708;18.568;2023-09-30T00:33:49;97739.47;;;13.07;100.00
31346;BME280;21711;49.708;18.568;2023-09-30T00:36:17;97733.16;;;13.02;100.00
31346;BME280;21711;49.708;18.568;2023-09-30T00:38:44;97725.41;;;13.06;100.00
31346;BME280;21711;49.708;18.568;2023-09-30T00:41:12;97724.88;;;13.09;100.00
31346;BME280;21711;49.708;18.568;2023-09-30T00:43:40;97720.88;;;13.12;100.00
31346;BME280;21711;49.708;18.568;2023-09-30T00:46:28;97724.28;;;13.12;100.00
31346;BME280;21711;49.708;18.568;2023-09-30T00:49:00;97723.19;;;13.19;100.00
31346;BME280;21711;49.708;18.568;2023-09-30T00:51:28;97732.19;;;13.23;100.00
31346;BME280;21711;49.708;18.568;2023-09-30T00:53:59;97729.16;;;13.35;100.00
31346;BME280;21711;49.708;18.568;2023-09-30T00:56:29;97727.03;;;13.37;100.00
31346;BME280;21711;49.708;18.568;2023-09-30T00:58:58;97722.75;;;13.41;100.00
31346;BME280;21711;49.708;18.568;2023-09-30T01:01:26;97721.94;;;13.40;100.00
31346;BME280;21711;49.708;18.568;2023-09-30T01:03:54;97717.66;;;13.45;100.00
31346;BME280;21711;49.708;18.568;2023-09-30T01:06:22;97725.09;;;13.48;100.00
31346;BME280;21711;49.708;18.568;2023-09-30T01:08:49;97719.50;;;13.49;100.00
31346;BME280;21711;49.708;18.568;2023-09-30T01:11:17;97715.19;;;13.53;100.00
31346;BME280;21711;49.708;18.568;2023-09-30T01:13:44;97722.63;;;13.57;100.00
31346;BME280;21711;49.708;18.568;2023-09-30T01:16:12;97721.78;;;13.61;100.00
31346;BME280;21711;49.708;18.568;2023-09-30T01:18:40;97718.28;;;13.66;100.00
31346;BME280;21711;49.708;18.568;2023-09-30T01:21:10;97717.47;;;13.65;100.00
31346;BME280;21711;49.708;18.568;2023-09-30T01:23:41;97721.78;;;13.61;100.00
31346;BME280;21711;49.708;18.568;2023-09-30T01:26:11;97715.41;;;13.62;100.00
31346;BME280;21711;49.708;18.568;2023-09-30T01:28:42;97722.28;;;13.63;100.00
31346;BME280;21711;49.708;18.568;2023-09-30T01:31:09;97721.22;;;13.64;100.00
31346;BME280;21711;49.708;18.568;2023-09-30T01:33:37;97731.84;;;13.64;100.00
31346;BME280;21711;49.708;18.568;2023-09-30T01:36:05;97720.81;;;13.76;100.00
31346;BME280;21711;49.708;18.568;2023-09-30T01:38:33;97722.13;;;13.79;100.00
31346;BME280;21711;49.708;18.568;2023-09-30T01:41:01;97728.97;;;13.85;100.00
31346;BME280;21711;49.708;18.568;2023-09-30T01:43:28;97731.63;;;13.85;100.00
31346;BME280;21711;49.708;18.568;2023-09-30T01:45:57;97732.97;;;13.88;100.00
31346;BME280;21711;49.708;18.568;2023-09-30T01:48:25;97728.19;;;13.85;100.00
31346;BME280;21711;49.708;18.568;2023-09-30T01:50:53;97731.47;;;13.76;100.00
31346;BME280;21711;49.708;18.568;2023-09-30T01:53:20;97736.56;;;13.73;100.00
31346;BME280;21711;49.708;18.568;2023-09-30T01:55:47;97735.75;;;13.72;100.00
31346;BME280;21711;49.708;18.568;2023-09-30T01:58:15;97736.28;;;13.74;100.00
31346;BME280;21711;49.708;18.568;2023-09-30T02:00:42;97730.44;;;13.72;100.00
31346;BME280;21711;49.708;18.568;2023-09-30T02:03:09;97725.81;;;13.83;100.00
31346;BME280;21711;49.708;18.568;2023-09-30T02:05:39;97728.88;;;13.96;100.00
31346;BME280;21711;49.708;18.568;2023-09-30T02:08:06;97731.53;;;13.96;100.00
31346;BME280;21711;49.708;18.568;2023-09-30T02:10:34;97722.06;;;13.84;100.00
31346;BME280;21711;49.708;18.568;2023-09-30T02:13:01;97725.00;;;13.83;100.00
31346;BME280;21711;49.708;18.568;2023-09-30T02:15:33;97725.31;;;13.81;100.00
31346;BME280;21711;49.708;18.568;2023-09-30T02:18:01;97725.31;;;13.81;100.00
31346;BME280;21711;49.708;18.568;2023-09-30T02:20:31;97729.78;;;13.86;100.00
31346;BME280;21711;49.708;18.568;2023-09-30T02:22:59;97732.16;;;13.87;100.00
31346;BME280;21711;49.708;18.568;2023-09-30T02:25:29;97725.19;;;13.91;100.00
31346;BME280;21711;49.708;18.568;2023-09-30T02:27:57;97719.13;;;14.10;100.00
31346;BME280;21711;49.708;18.568;2023-09-30T02:30:25;97719.50;;;14.23;100.00
31346;BME280;21711;49.708;18.568;2023-09-30T02:32:52;97728.78;;;14.25;100.00
31346;BME280;21711;49.708;18.568;2023-09-30T02:35:20;97729.09;;;14.24;100.00
31346;BME280;21711;49.708;18.568;2023-09-30T02:37:47;97726.94;;;14.26;100.00
31346;BME280;21711;49.708;18.568;2023-09-30T02:40:16;97727.22;;;14.24;100.00
31346;BME280;21711;49.708;18.568;2023-09-30T02:42:44;97726.13;;;14.25;100.00
31346;BME280;21711;49.708;18.568;2023-09-30T02:45:12;97724.19;;;14.31;100.00
31346;BME280;21711;49.708;18.568;2023-09-30T02:47:40;97726.03;;;14.36;100.00
31346;BME280;21711;49.708;18.568;2023-09-30T02:50:08;97728.88;;;14.39;100.00
31346;BME280;21711;49.708;18.568;2023-09-30T02:52:39;97725.44;;;14.39;100.00
31346;BME280;21711;49.708;18.568;2023-09-30T02:55:11;97725.06;;;14.45;100.00
31346;BME280;21711;49.708;18.568;2023-09-30T02:57:39;97728.53;;;14.46;100.00
31346;BME280;21711;49.708;18.568;2023-09-30T03:00:09;97725.28;;;14.49;100.00
31346;BME280;21711;49.708;18.568;2023-09-30T03:02:55;97721.50;;;14.55;100.00
31346;BME280;21711;49.708;18.568;2023-09-30T03:05:23;97718.81;;;14.75;100.00
31346;BME280;21711;49.708;18.568;2023-09-30T03:07:50;97724.09;;;14.80;100.00
31346;BME280;21711;49.708;18.568;2023-09-30T03:10:19;97725.69;;;14.81;100.00
31346;BME280;21711;49.708;18.568;2023-09-30T03:12:51;97721.34;;;14.85;100.00
31346;BME280;21711;49.708;18.568;2023-09-30T03:15:19;97721.88;;;14.87;100.00
31346;BME280;21711;49.708;18.568;2023-09-30T03:17:46;97725.34;;;14.88;100.00
31346;BME280;21711;49.708;18.568;2023-09-30T03:20:17;97718.41;;;14.86;100.00
31346;BME280;21711;49.708;18.568;2023-09-30T03:22:47;97711.50;;;14.85;100.00
31346;BME280;21711;49.708;18.568;2023-09-30T03:25:16;97708.56;;;14.87;100.00
31346;BME280;21711;49.708;18.568;2023-09-30T03:27:48;97712.59;;;14.84;100.00
31346;BME280;21711;49.708;18.568;2023-09-30T03:30:17;97701.38;;;14.88;100.00
31346;BME280;21711;49.708;18.568;2023-09-30T03:32:45;97707.19;;;15.09;100.00
31346;BME280;21711;49.708;18.568;2023-09-30T03:35:13;97705.25;;;15.29;100.00
31346;BME280;21711;49.708;18.568;2023-09-30T03:37:47;97704.56;;;15.37;100.00
31346;BME280;21711;49.708;18.568;2023-09-30T03:40:15;97701.03;;;15.42;100.00
31346;BME280;21711;49.708;18.568;2023-09-30T03:42:47;97696.09;;;15.35;100.00
31346;BME280;21711;49.708;18.568;2023-09-30T03:45:18;97702.59;;;15.29;100.00
31346;BME280;21711;49.708;18.568;2023-09-30T03:47:46;97711.81;;;15.17;100.00
31346;BME280;21711;49.708;18.568;2023-09-30T03:50:16;97714.28;;;15.14;100.00
31346;BME280;21711;49.708;18.568;2023-09-30T03:52:44;97708.31;;;15.03;100.00
31346;BME280;21711;49.708;18.568;2023-09-30T03:55:15;97714.63;;;14.93;100.00
31346;BME280;21711;49.708;18.568;2023-09-30T03:57:49;97709.56;;;14.91;100.00
31346;BME280;21711;49.708;18.568;2023-09-30T04:00:19;97711.22;;;14.87;100.00
31346;BME280;21711;49.708;18.568;2023-09-30T04:02:48;97708.94;;;14.80;100.00
31346;BME280;21711;49.708;18.568;2023-09-30T04:05:18;97711.78;;;14.84;100.00
31346;BME280;21711;49.708;18.568;2023-09-30T04:07:47;97712.03;;;14.88;100.00
31346;BME280;21711;49.708;18.568;2023-09-30T04:10:14;97718.06;;;14.74;100.00
31346;BME280;21711;49.708;18.568;2023-09-30T04:12:44;97715.16;;;14.70;100.00
31346;BME280;21711;49.708;18.568;2023-09-30T04:15:12;97718.75;;;14.60;100.00
31346;BME280;21711;49.708;18.568;2023-09-30T04:17:40;97722.44;;;14.65;100.00
31346;BME280;21711;49.708;18.568;2023-09-30T04:20:08;97713.94;;;14.63;100.00
31346;BME280;21711;49.708;18.568;2023-09-30T04:22:38;97723.81;;;14.62;100.00
31346;BME280;21711;49.708;18.568;2023-09-30T04:25:06;97727.84;;;14.59;100.00
31346;BME280;21711;49.708;18.568;2023-09-30T04:27:37;97732.34;;;14.59;100.00
31346;BME280;21711;49.708;18.568;2023-09-30T04:30:05;97734.94;;;14.64;100.00
31346;BME280;21711;49.708;18.568;2023-09-30T04:32:38;97734.44;;;14.62;100.00
31346;BME280;21711;49.708;18.568;2023-09-30T04:35:06;97740.34;;;14.59;100.00
31346;BME280;21711;49.708;18.568;2023-09-30T04:37:35;97741.34;;;14.63;100.00
31346;BME280;21711;49.708;18.568;2023-09-30T04:40:08;97747.09;;;14.70;100.00
31346;BME280;21711;49.708;18.568;2023-09-30T04:42:49;97749.13;;;14.59;100.00
31346;BME280;21711;49.708;18.568;2023-09-30T04:45:17;97749.34;;;14.63;100.00
31346;BME280;21711;49.708;18.568;2023-09-30T04:47:48;97753.56;;;14.64;100.00
31346;BME280;21711;49.708;18.568;2023-09-30T04:50:18;97759.25;;;14.57;100.00
31346;BME280;21711;49.708;18.568;2023-09-30T04:52:51;97756.94;;;14.51;100.00
31346;BME280;21711;49.708;18.568;2023-09-30T04:55:19;97756.88;;;14.56;100.00
31346;BME280;21711;49.708;18.568;2023-09-30T04:57:47;97757.75;;;14.51;100.00
31346;BME280;21711;49.708;18.568;2023-09-30T05:00:18;97756.66;;;14.52;100.00
31346;BME280;21711;49.708;18.568;2023-09-30T05:02:46;97760.34;;;14.56;100.00
31346;BME280;21711;49.708;18.568;2023-09-30T05:05:14;97756.38;;;14.54;100.00
31346;BME280;21711;49.708;18.568;2023-09-30T05:07:43;97763.56;;;14.53;100.00
31346;BME280;21711;49.708;18.568;2023-09-30T05:10:11;97769.31;;;14.60;100.00
31346;BME280;21711;49.708;18.568;2023-09-30T05:12:43;97770.16;;;14.56;100.00
31346;BME280;21711;49.708;18.568;2023-09-30T05:15:18;97773.16;;;14.54;100.00
31346;BME280;21711;49.708;18.568;2023-09-30T05:17:48;97774.44;;;14.57;100.00
31346;BME280;21711;49.708;18.568;2023-09-30T05:20:17;97780.03;;;14.55;100.00
31346;BME280;21711;49.708;18.568;2023-09-30T05:22:45;97784.34;;;14.51;100.00
31346;BME280;21711;49.708;18.568;2023-09-30T05:25:15;97786.72;;;14.53;100.00
31346;BME280;21711;49.708;18.568;2023-09-30T05:27:46;97790.91;;;14.59;100.00
31346;BME280;21711;49.708;18.568;2023-09-30T05:30:17;97784.22;;;14.62;100.00
31346;BME280;21711;49.708;18.568;2023-09-30T05:32:47;97786.03;;;14.66;100.00
31346;BME280;21711;49.708;18.568;2023-09-30T05:35:15;97792.03;;;14.77;100.00
31346;BME280;21711;49.708;18.568;2023-09-30T05:37:45;97790.66;;;14.80;100.00
31346;BME280;21711;49.708;18.568;2023-09-30T05:40:13;97784.69;;;14.88;100.00
31346;BME280;21711;49.708;18.568;2023-09-30T05:42:55;97788.84;;;14.94;100.00
31346;BME280;21711;49.708;18.568;2023-09-30T05:45:27;97795.50;;;14.97;100.00
31346;BME280;21711;49.708;18.568;2023-09-30T05:47:57;97801.53;;;15.03;100.00
31346;BME280;21711;49.708;18.568;2023-09-30T05:50:30;97804.34;;;15.11;100.00
31346;BME280;21711;49.708;18.568;2023-09-30T05:52:58;97805.03;;;15.17;100.00
31346;BME280;21711;49.708;18.568;2023-09-30T05:55:26;97810.22;;;15.28;100.00
31346;BME280;21711;49.708;18.568;2023-09-30T05:57:55;97807.34;;;15.24;100.00
31346;BME280;21711;49.708;18.568;2023-09-30T06:00:23;97802.75;;;15.30;100.00
31346;BME280;21711;49.708;18.568;2023-09-30T06:03:00;97811.47;;;15.35;100.00
31346;BME280;21711;49.708;18.568;2023-09-30T06:05:28;97816.47;;;15.37;100.00
31346;BME280;21711;49.708;18.568;2023-09-30T06:08:04;97815.19;;;15.34;100.00
31346;BME280;21711;49.708;18.568;2023-09-30T06:10:32;97814.31;;;15.39;100.00
31346;BME280;21711;49.708;18.568;2023-09-30T06:12:59;97816.63;;;15.27;100.00
31346;BME280;21711;49.708;18.568;2023-09-30T06:15:27;97827.88;;;15.23;100.00
31346;BME280;21711;49.708;18.568;2023-09-30T06:17:56;97826.91;;;15.33;100.00
31346;BME280;21711;49.708;18.568;2023-09-30T06:20:26;97837.72;;;15.42;100.00
31346;BME280;21711;49.708;18.568;2023-09-30T06:22:55;97846.69;;;15.46;100.00
31346;BME280;21711;49.708;18.568;2023-09-30T06:25:23;97848.91;;;15.58;100.00
31346;BME280;21711;49.708;18.568;2023-09-30T06:27:52;97845.94;;;15.79;100.00
31346;BME280;21711;49.708;18.568;2023-09-30T06:30:22;97852.75;;;16.04;100.00
31346;BME280;21711;49.708;18.568;2023-09-30T06:32:59;97855.50;;;16.27;100.00
31346;BME280;21711;49.708;18.568;2023-09-30T06:35:28;97862.53;;;16.51;100.00
31346;BME280;21711;49.708;18.568;2023-09-30T06:38:05;97863.84;;;16.68;100.00
31346;BME280;21711;49.708;18.568;2023-09-30T06:40:34;97880.56;;;16.74;100.00
31346;BME280;21711;49.708;18.568;2023-09-30T06:43:06;97879.84;;;16.68;100.00
31346;BME280;21711;49.708;18.568;2023-09-30T06:45:36;97888.47;;;16.79;100.00
31346;BME280;21711;49.708;18.568;2023-09-30T06:48:11;97887.28;;;16.71;100.00
31346;BME280;21711;49.708;18.568;2023-09-30T06:50:47;97886.00;;;16.68;100.00
31346;BME280;21711;49.708;18.568;2023-09-30T06:53:17;97884.78;;;16.89;100.00
31346;BME280;21711;49.708;18.568;2023-09-30T06:55:46;97886.28;;;16.95;100.00
31346;BME280;21711;49.708;18.568;2023-09-30T06:58:13;97899.22;;;17.02;100.00
31346;BME280;21711;49.708;18.568;2023-09-30T07:00:41;97904.78;;;17.05;100.00
31346;BME280;21711;49.708;18.568;2023-09-30T07:03:09;97903.88;;;17.10;100.00
31346;BME280;21711;49.708;18.568;2023-09-30T07:05:37;97914.16;;;17.17;100.00
31346;BME280;21711;49.708;18.568;2023-09-30T07:08:05;97914.88;;;17.08;100.00
31346;BME280;21711;49.708;18.568;2023-09-30T07:10:32;97915.47;;;17.05;100.00
31346;BME280;21711;49.708;18.568;2023-09-30T07:13:03;97918.13;;;17.05;100.00
31346;BME280;21711;49.708;18.568;2023-09-30T07:15:31;97920.38;;;16.98;100.00
31346;BME280;21711;49.708;18.568;2023-09-30T07:17:59;97915.84;;;16.85;100.00
31346;BME280;21711;49.708;18.568;2023-09-30T07:20:26;97924.47;;;16.81;100.00
31346;BME280;21711;49.708;18.568;2023-09-30T07:22:55;97930.38;;;16.78;100.00
31346;BME280;21711;49.708;18.568;2023-09-30T07:25:42;97928.91;;;16.72;100.00
31346;BME280;21711;49.708;18.568;2023-09-30T07:28:10;97932.69;;;16.71;100.00
31346;BME280;21711;49.708;18.568;2023-09-30T07:30:39;97928.03;;;16.63;100.00
31346;BME280;21711;49.708;18.568;2023-09-30T07:33:07;97933.56;;;16.66;100.00
31346;BME280;21711;49.708;18.568;2023-09-30T07:35:35;97943.75;;;16.64;100.00
31346;BME280;21711;49.708;18.568;2023-09-30T07:38:04;97937.78;;;16.67;100.00
31346;BME280;21711;49.708;18.568;2023-09-30T07:40:31;97935.31;;;16.57;100.00
31346;BME280;21711;49.708;18.568;2023-09-30T07:43:00;97944.22;;;16.52;100.00
31346;BME280;21711;49.708;18.568;2023-09-30T07:45:27;97949.38;;;16.63;100.00
31346;BME280;21711;49.708;18.568;2023-09-30T07:47:55;97944.44;;;16.84;100.00
31346;BME280;21711;49.708;18.568;2023-09-30T07:50:26;97950.09;;;16.96;100.00
31346;BME280;21711;49.708;18.568;2023-09-30T07:52:53;97958.00;;;17.02;100.00
31346;BME280;21711;49.708;18.568;2023-09-30T07:55:21;97968.91;;;17.05;100.00
31346;BME280;21711;49.708;18.568;2023-09-30T07:57:48;97960.59;;;17.07;100.00
31346;BME280;21711;49.708;18.568;2023-09-30T08:00:16;97970.66;;;17.10;100.00
31346;BME280;21711;49.708;18.568;2023-09-30T08:02:44;97960.75;;;17.25;100.00
31346;BME280;21711;49.708;18.568;2023-09-30T08:05:13;97965.41;;;17.33;100.00
31346;BME280;21711;49.708;18.568;2023-09-30T08:07:40;97979.94;;;17.41;100.00
31346;BME280;21711;49.708;18.568;2023-09-30T08:10:09;97972.00;;;17.50;100.00
31346;BME280;21711;49.708;18.568;2023-09-30T08:12:41;97979.50;;;17.61;100.00
31346;BME280;21711;49.708;18.568;2023-09-30T08:15:10;97976.16;;;17.56;100.00
31346;BME280;21711;49.708;18.568;2023-09-30T08:17:41;97976.31;;;17.59;100.00
31346;BME280;21711;49.708;18.568;2023-09-30T08:20:09;97979.81;;;17.60;100.00
31346;BME280;21711;49.708;18.568;2023-09-30T08:22:37;97976.84;;;17.61;100.00
31346;BME280;21711;49.708;18.568;2023-09-30T08:25:06;97979.72;;;17.51;100.00
31346;BME280;21711;49.708;18.568;2023-09-30T08:27:34;97977.75;;;17.43;100.00
31346;BME280;21711;49.708;18.568;2023-09-30T08:30:02;97977.78;;;17.29;100.00
31346;BME280;21711;49.708;18.568;2023-09-30T08:32:34;97982.81;;;17.30;100.00
31346;BME280;21711;49.708;18.568;2023-09-30T08:35:03;97979.56;;;17.19;100.00
31346;BME280;21711;49.708;18.568;2023-09-30T08:37:31;97979.66;;;17.28;100.00
31346;BME280;21711;49.708;18.568;2023-09-30T08:39:59;97972.63;;;17.32;100.00
31346;BME280;21711;49.708;18.568;2023-09-30T08:42:27;97975.31;;;17.18;100.00
31346;BME280;21711;49.708;18.568;2023-09-30T08:45:01;97980.75;;;17.13;100.00
31346;BME280;21711;49.708;18.568;2023-09-30T08:47:29;97982.34;;;17.00;100.00
31346;BME280;21711;49.708;18.568;2023-09-30T08:49:59;97983.00;;;16.92;100.00
31346;BME280;21711;49.708;18.568;2023-09-30T08:52:34;97988.47;;;16.87;100.00
31346;BME280;21711;49.708;18.568;2023-09-30T08:55:08;97981.63;;;16.80;100.00
31346;BME280;21711;49.708;18.568;2023-09-30T08:57:41;97985.38;;;16.65;100.00
31346;BME280;21711;49.708;18.568;2023-09-30T09:00:12;97978.66;;;16.68;100.00
31346;BME280;21711;49.708;18.568;2023-09-30T09:02:41;97988.34;;;16.64;100.00
31346;BME280;21711;49.708;18.568;2023-09-30T09:05:10;97989.63;;;16.66;100.00
31346;BME280;21711;49.708;18.568;2023-09-30T09:07:39;97984.56;;;16.65;100.00
31346;BME280;21711;49.708;18.568;2023-09-30T09:10:13;97985.47;;;16.60;100.00
31346;BME280;21711;49.708;18.568;2023-09-30T09:12:42;97990.03;;;16.74;100.00
31346;BME280;21711;49.708;18.568;2023-09-30T09:15:28;97998.44;;;16.81;100.00
31346;BME280;21711;49.708;18.568;2023-09-30T09:17:57;97995.97;;;16.85;100.00
31346;BME280;21711;49.708;18.568;2023-09-30T09:20:25;97991.50;;;16.80;100.00
31346;BME280;21711;49.708;18.568;2023-09-30T09:22:55;97998.25;;;16.77;100.00
31346;BME280;21711;49.708;18.568;2023-09-30T09:25:24;97996.06;;;16.65;100.00
31346;BME280;21711;49.708;18.568;2023-09-30T09:27:52;97998.25;;;16.63;100.00
31346;BME280;21711;49.708;18.568;2023-09-30T09:30:24;97990.59;;;16.56;100.00
31346;BME280;21711;49.708;18.568;2023-09-30T09:33:04;98000.66;;;16.46;100.00
31346;BME280;21711;49.708;18.568;2023-09-30T09:35:34;97998.56;;;16.42;100.00
31346;BME280;21711;49.708;18.568;2023-09-30T09:38:07;97998.00;;;16.46;100.00
31346;BME280;21711;49.708;18.568;2023-09-30T09:40:38;97995.06;;;16.61;100.00
31346;BME280;21711;49.708;18.568;2023-09-30T09:43:09;97996.16;;;16.60;100.00
31346;BME280;21711;49.708;18.568;2023-09-30T09:45:37;98000.00;;;16.68;100.00
31346;BME280;21711;49.708;18.568;2023-09-30T09:48:06;98001.19;;;16.62;100.00
31346;BME280;21711;49.708;18.568;2023-09-30T09:50:35;97998.78;;;16.46;100.00
31346;BME280;21711;49.708;18.568;2023-09-30T09:53:05;97997.44;;;16.63;100.00
31346;BME280;21711;49.708;18.568;2023-09-30T09:55:33;97996.34;;;16.64;100.00
31346;BME280;21711;49.708;18.568;2023-09-30T09:58:02;98000.72;;;16.74;100.00
31346;BME280;21711;49.708;18.568;2023-09-30T10:00:30;98003.88;;;16.76;100.00
31346;BME280;21711;49.708;18.568;2023-09-30T10:02:59;98009.72;;;16.78;100.00
31346;BME280;21711;49.708;18.568;2023-09-30T10:05:26;98008.03;;;16.68;100.00
31346;BME280;21711;49.708;18.568;2023-09-30T10:08:02;98010.22;;;16.66;100.00
31346;BME280;21711;49.708;18.568;2023-09-30T10:10:31;98010.59;;;16.73;100.00
31346;BME280;21711;49.708;18.568;2023-09-30T10:13:03;98004.25;;;16.69;100.00
31346;BME280;21711;49.708;18.568;2023-09-30T10:20:42;98011.75;;;16.53;100.00
31346;BME280;21711;49.708;18.568;2023-09-30T10:23:26;98009.31;;;16.56;100.00
31346;BME280;21711;49.708;18.568;2023-09-30T10:26:14;98011.19;;;16.37;100.00
31346;BME280;21711;49.708;18.568;2023-09-30T10:28:46;98010.72;;;16.35;100.00
31346;BME280;21711;49.708;18.568;2023-09-30T10:31:19;98014.19;;;16.35;100.00
31346;BME280;21711;49.708;18.568;2023-09-30T10:36:40;98007.88;;;16.45;100.00
31346;BME280;21711;49.708;18.568;2023-09-30T10:39:12;98007.78;;;16.50;100.00
31346;BME280;21711;49.708;18.568;2023-09-30T10:47:00;98011.66;;;16.58;100.00
31346;BME280;21711;49.708;18.568;2023-09-30T10:51:57;98012.88;;;16.66;100.00
31346;BME280;21711;49.708;18.568;2023-09-30T10:54:32;98012.34;;;16.64;100.00
31346;BME280;21711;49.708;18.568;2023-09-30T10:57:01;98012.25;;;16.55;100.00
31346;BME280;21711;49.708;18.568;2023-09-30T10:59:31;98017.06;;;16.39;100.00
31346;BME280;21711;49.708;18.568;2023-09-30T11:01:59;98023.84;;;16.31;100.00
31346;BME280;21711;49.708;18.568;2023-09-30T11:04:27;98012.38;;;16.30;100.00
31346;BME280;21711;49.708;18.568;2023-09-30T11:06:55;98022.75;;;16.32;100.00
31346;BME280;21711;49.708;18.568;2023-09-30T11:09:23;98026.75;;;16.15;100.00
31346;BME280;21711;49.708;18.568;2023-09-30T11:11:54;98026.16;;;16.19;100.00
31346;BME280;21711;49.708;18.568;2023-09-30T11:17:01;98034.69;;;16.21;100.00
31346;BME280;21711;49.708;18.568;2023-09-30T11:19:45;98043.28;;;16.17;100.00
31346;BME280;21711;49.708;18.568;2023-09-30T11:22:13;98047.09;;;16.11;100.00
31346;BME280;21711;49.708;18.568;2023-09-30T11:24:42;98040.41;;;15.95;100.00
31346;BME280;21711;49.708;18.568;2023-09-30T11:27:10;98044.47;;;15.87;100.00
31346;BME280;21711;49.708;18.568;2023-09-30T11:29:49;98051.53;;;15.77;100.00
31346;BME280;21711;49.708;18.568;2023-09-30T11:32:28;98050.66;;;15.82;100.00
31346;BME280;21711;49.708;18.568;2023-09-30T11:34:56;98051.97;;;15.85;100.00
31346;BME280;21711;49.708;18.568;2023-09-30T11:37:31;98059.69;;;15.86;100.00
31346;BME280;21711;49.708;18.568;2023-09-30T11:40:12;98050.44;;;15.78;100.00
31346;BME280;21711;49.708;18.568;2023-09-30T11:43:09;98055.84;;;15.73;100.00
31346;BME280;21711;49.708;18.568;2023-09-30T11:45:39;98060.75;;;15.66;100.00
31346;BME280;21711;49.708;18.568;2023-09-30T11:48:20;98063.72;;;15.64;100.00
31346;BME280;21711;49.708;18.568;2023-09-30T11:50:49;98061.53;;;15.67;100.00
31346;BME280;21711;49.708;18.568;2023-09-30T11:53:17;98067.16;;;15.65;100.00
31346;BME280;21711;49.708;18.568;2023-09-30T11:55:48;98070.97;;;15.59;100.00
31346;BME280;21711;49.708;18.568;2023-09-30T11:58:15;98063.84;;;15.54;100.00
31346;BME280;21711;49.708;18.568;2023-09-30T12:00:46;98072.41;;;15.51;100.00
31346;BME280;21711;49.708;18.568;2023-09-30T12:03:13;98070.88;;;15.45;100.00
31346;BME280;21711;49.708;18.568;2023-09-30T12:05:41;98078.00;;;15.49;100.00
31346;BME280;21711;49.708;18.568;2023-09-30T12:08:08;98079.22;;;15.38;100.00
31346;BME280;21711;49.708;18.568;2023-09-30T12:10:36;98086.41;;;15.37;100.00
31346;BME280;21711;49.708;18.568;2023-09-30T12:13:03;98075.84;;;15.51;100.00
31346;BME280;21711;49.708;18.568;2023-09-30T12:15:31;98087.34;;;15.71;100.00
31346;BME280;21711;49.708;18.568;2023-09-30T12:17:59;98083.47;;;15.83;100.00
31346;BME280;21711;49.708;18.568;2023-09-30T12:20:26;98087.84;;;15.73;100.00
31346;BME280;21711;49.708;18.568;2023-09-30T12:22:54;98079.44;;;15.85;100.00
31346;BME280;21711;49.708;18.568;2023-09-30T12:25:22;98085.13;;;15.78;100.00
31346;BME280;21711;49.708;18.568;2023-09-30T12:27:49;98078.75;;;15.74;100.00
31346;BME280;21711;49.708;18.568;2023-09-30T12:30:21;98083.25;;;15.79;100.00
31346;BME280;21711;49.708;18.568;2023-09-30T12:32:49;98083.41;;;15.88;100.00
31346;BME280;21711;49.708;18.568;2023-09-30T12:35:17;98088.34;;;16.00;100.00
31346;BME280;21711;49.708;18.568;2023-09-30T12:37:45;98088.63;;;16.17;100.00
31346;BME280;21711;49.708;18.568;2023-09-30T12:40:13;98096.78;;;16.07;100.00
31346;BME280;21711;49.708;18.568;2023-09-30T12:42:44;98093.59;;;16.05;100.00
31346;BME280;21711;49.708;18.568;2023-09-30T12:45:12;98097.56;;;16.08;100.00
31346;BME280;21711;49.708;18.568;2023-09-30T12:47:40;98100.75;;;16.10;100.00
31346;BME280;21711;49.708;18.568;2023-09-30T12:50:08;98097.47;;;16.13;100.00
31346;BME280;21711;49.708;18.568;2023-09-30T12:52:38;98105.00;;;16.11;100.00
31346;BME280;21711;49.708;18.568;2023-09-30T12:55:06;98109.84;;;16.09;100.00
31346;BME280;21711;49.708;18.568;2023-09-30T12:57:34;98102.94;;;15.83;100.00
31346;BME280;21711;49.708;18.568;2023-09-30T13:00:01;98097.53;;;15.88;100.00
31346;BME280;21711;49.708;18.568;2023-09-30T13:02:30;98108.41;;;15.92;100.00
31346;BME280;21711;49.708;18.568;2023-09-30T13:04:58;98111.84;;;15.73;100.00
31346;BME280;21711;49.708;18.568;2023-09-30T13:07:25;98102.81;;;15.69;100.00
31346;BME280;21711;49.708;18.568;2023-09-30T13:09:53;98113.34;;;15.80;100.00
31346;BME280;21711;49.708;18.568;2023-09-30T13:12:20;98100.75;;;15.66;100.00